Time;durP1;ratioP1;P1;durP2;ratioP2;P2;SDS_P1;SDS_P2;PMS_P1;PMS_P2;Temp;Humidity;BMP_temperature;BMP_pressure;BME280_temperature;BME280_humidity;BME280_pressure;Samples;Min_cycle;Max_cycle;Signal;HPM_P1;HPM_P2
2022/05/25 00:00:22;;;;;;;6.65;2.90;;;;;;;18.88;66.09;99718.50;4974576;28;101193;-93
2022/05/25 00:02:47;;;;;;;3.78;2.85;;;;;;;18.97;66.55;99735.56;4995681;28;96581;-93
2022/05/25 00:05:14;;;;;;;4.80;2.80;;;;;;;18.93;66.32;99724.28;4987124;28;96936;-92
2022/05/25 00:07:40;;;;;;;5.97;3.33;;;;;;;18.67;66.73;99696.19;4974954;28;98452;-93
2022/05/25 00:10:06;;;;;;;7.00;3.20;;;;;;;19.08;66.82;99786.09;4975527;28;97858;-90
2022/05/25 00:12:32;;;;;;;5.88;2.97;;;;;;;19.19;66.50;99790.56;4974499;28;96744;-92
2022/05/25 00:14:58;;;;;;;4.97;3.20;;;;;;;18.58;66.69;99702.22;4963741;28;96915;-92
2022/05/25 00:17:23;;;;;;;6.50;3.35;;;;;;;19.15;66.44;99789.13;4960579;28;101418;-92
2022/05/25 00:20:01;;;;;;;7.25;3.17;;;;;;;18.92;66.52;99761.66;4958495;28;101412;-92
2022/05/25 00:22:41;;;;;;;7.30;3.42;;;;;;;19.07;66.47;99783.56;4973455;28;97146;-93
2022/05/25 00:25:08;;;;;;;5.60;3.20;;;;;;;19.05;66.27;99772.16;4966601;28;97066;-90
2022/05/25 00:27:34;;;;;;;5.88;3.38;;;;;;;19.11;66.22;99795.63;4958433;28;100045;-92
2022/05/25 00:30:00;;;;;;;5.75;3.35;;;;;;;19.03;66.34;99796.25;4958482;28;100012;-93
2022/05/25 00:32:25;;;;;;;11.00;3.45;;;;;;;18.91;66.82;99806.03;4990887;28;96679;-93
2022/05/25 00:34:51;;;;;;;6.75;3.40;;;;;;;18.71;66.80;99774.75;4958382;28;96916;-92
2022/05/25 00:37:16;;;;;;;8.25;3.53;;;;;;;18.87;66.64;99803.69;4969542;28;101265;-93
2022/05/25 00:39:42;;;;;;;5.10;3.30;;;;;;;18.68;66.56;99764.38;4969121;28;99941;-92
2022/05/25 00:42:07;;;;;;;6.50;3.60;;;;;;;18.94;66.76;99812.91;4971788;28;96656;-92
2022/05/25 00:44:33;;;;;;;6.38;2.97;;;;;;;18.74;66.96;99798.47;5009564;28;96959;-92
2022/05/25 00:46:59;;;;;;;7.22;3.60;;;;;;;18.64;67.50;99792.13;4980623;28;100524;-91
2022/05/25 00:49:28;;;;;;;5.25;3.83;;;;;;;18.78;67.09;99810.56;4986909;28;98184;-92
2022/05/25 00:51:57;;;;;;;4.72;3.20;;;;;;;18.67;66.88;99781.25;4988278;28;96971;-92
2022/05/25 00:54:27;;;;;;;5.00;3.45;;;;;;;18.81;66.97;99823.63;4960338;28;96836;-92
2022/05/25 00:56:53;;;;;;;5.93;3.75;;;;;;;18.97;66.39;99820.66;4983922;28;101243;-90
2022/05/25 00:59:21;;;;;;;7.47;3.65;;;;;;;18.38;66.61;99748.91;4975529;28;101171;-92
2022/05/25 01:01:47;;;;;;;11.88;3.72;;;;;;;18.38;67.02;99757.72;4959524;28;96714;-93
2022/05/25 01:04:13;;;;;;;7.03;4.80;;;;;;;18.72;66.90;99819.81;4976375;28;96822;-90
2022/05/25 01:07:00;;;;;;;4.28;3.35;;;;;;;18.81;66.70;99838.75;4961706;28;100123;-91
2022/05/25 01:09:56;;;;;;;6.05;3.70;;;;;;;18.68;66.81;99826.34;4975532;28;100363;-92
2022/05/25 01:12:55;;;;;;;4.50;3.45;;;;;;;18.88;66.18;99838.16;4993275;28;97101;-91
2022/05/25 01:15:46;;;;;;;7.43;3.67;;;;;;;18.71;66.60;99842.06;4989467;28;97245;-91
2022/05/25 01:18:16;;;;;;;6.57;3.47;;;;;;;18.81;66.54;99850.22;4962342;28;101286;-90
2022/05/25 01:20:46;;;;;;;8.88;3.50;;;;;;;18.79;66.65;99849.47;4974248;28;101516;-92
2022/05/25 01:23:20;;;;;;;5.53;3.47;;;;;;;18.72;66.83;99858.84;4959241;28;96626;-90
2022/05/25 01:26:04;;;;;;;4.63;3.67;;;;;;;18.57;67.48;99854.69;4991296;28;96919;-93
2022/05/25 01:28:42;;;;;;;6.18;3.67;;;;;;;18.51;67.57;99861.31;4992308;28;97209;-93
2022/05/25 01:31:11;;;;;;;7.45;4.10;;;;;;;18.44;67.80;99857.41;4985045;28;101248;-92
2022/05/25 01:33:45;;;;;;;5.32;3.45;;;;;;;18.43;67.81;99851.25;4984008;28;96885;-92
2022/05/25 01:36:27;;;;;;;6.72;3.83;;;;;;;18.49;67.74;99848.13;4974449;28;97150;-93
2022/05/25 01:39:18;;;;;;;7.65;3.13;;;;;;;18.65;67.43;99857.63;4955388;28;101154;-92
2022/05/25 01:41:56;;;;;;;6.22;3.05;;;;;;;18.64;67.75;99864.75;4976244;28;101396;-92
2022/05/25 01:44:30;;;;;;;5.07;3.05;;;;;;;18.71;67.36;99850.03;4956922;28;97718;-93
2022/05/25 01:47:04;;;;;;;6.72;3.22;;;;;;;18.46;68.65;99844.84;4972831;28;96810;-92
2022/05/25 01:49:40;;;;;;;8.65;3.75;;;;;;;18.55;68.40;99846.81;4996050;28;97998;-92
2022/05/25 01:52:09;;;;;;;6.20;3.47;;;;;;;18.49;68.52;99845.47;4961983;28;100613;-92
2022/05/25 01:54:42;;;;;;;6.15;4.10;;;;;;;18.63;68.06;99851.56;4967527;28;96686;-93
2022/05/25 01:57:10;;;;;;;7.38;4.55;;;;;;;18.65;67.72;99839.88;4950001;28;97273;-92
2022/05/25 01:59:36;;;;;;;6.68;4.63;;;;;;;18.71;67.61;99852.69;4968613;28;100313;-92
2022/05/25 02:04:50;;;;;;;5.85;4.90;;;;;;;18.55;68.50;99866.28;4986691;28;97253;-92
2022/05/25 02:07:43;;;;;;;17.63;5.70;;;;;;;18.52;68.43;99863.00;4978945;28;96912;-90
2022/05/25 02:10:10;;;;;;;11.40;4.18;;;;;;;18.53;68.49;99868.22;5024670;28;98062;-93
2022/05/25 02:13:09;;;;;;;7.63;5.13;;;;;;;18.59;68.22;99861.59;5005776;28;101208;-93
2022/05/25 02:15:46;;;;;;;9.50;3.88;;;;;;;18.66;68.07;99862.81;4939701;28;97251;-92
2022/05/25 02:18:24;;;;;;;5.47;4.10;;;;;;;18.60;68.23;99865.94;4957344;28;97043;-92
2022/05/25 02:21:24;;;;;;;8.10;4.30;;;;;;;18.58;68.36;99864.34;4973093;28;101521;-92
2022/05/25 02:23:53;;;;;;;8.90;4.07;;;;;;;18.48;68.80;99862.38;4962550;28;101277;-91
2022/05/25 02:26:26;;;;;;;7.68;5.05;;;;;;;18.45;69.31;99864.44;4959695;28;96711;-93
2022/05/25 02:29:13;;;;;;;6.72;4.18;;;;;;;18.42;69.41;99862.00;4959035;28;97768;-91
2022/05/25 02:31:47;;;;;;;9.90;4.25;;;;;;;18.46;69.47;99869.63;4971812;28;101599;-93
2022/05/25 02:34:16;;;;;;;8.20;4.60;;;;;;;18.44;69.37;99873.34;4940430;28;101194;-91
2022/05/25 02:36:42;;;;;;;6.00;4.20;;;;;;;18.15;70.33;99846.25;4956582;28;97016;-92
2022/05/25 02:39:10;;;;;;;7.40;4.10;;;;;;;18.37;69.95;99866.81;4940294;28;96896;-93
2022/05/25 02:41:48;;;;;;;5.45;4.25;;;;;;;18.43;70.06;99876.97;4955991;28;101178;-92
2022/05/25 02:44:14;;;;;;;5.35;4.38;;;;;;;18.44;69.93;99866.25;4956836;28;101041;-92
2022/05/25 02:46:40;;;;;;;4.90;3.90;;;;;;;18.49;69.64;99872.03;4963349;28;96980;-92
2022/05/25 02:49:06;;;;;;;8.20;4.18;;;;;;;18.25;69.40;99828.69;4963235;28;96954;-92
2022/05/25 02:51:31;;;;;;;4.25;3.85;;;;;;;18.42;69.69;99872.63;4958291;28;101059;-92
2022/05/25 02:53:57;;;;;;;7.88;4.30;;;;;;;18.26;69.75;99854.28;4976011;28;100917;-92
2022/05/25 02:56:22;;;;;;;5.10;4.38;;;;;;;18.43;69.25;99867.19;4975866;28;96750;-92
2022/05/25 02:58:48;;;;;;;9.50;4.55;;;;;;;18.55;68.77;99881.38;4968349;28;97014;-90
2022/05/25 03:01:14;;;;;;;7.10;4.35;;;;;;;18.45;69.52;99875.91;4982014;28;99932;-91
2022/05/25 03:03:39;;;;;;;5.65;4.40;;;;;;;18.43;69.38;99884.94;4965669;28;100324;-92
2022/05/25 03:06:06;;;;;;;5.72;4.45;;;;;;;18.38;69.50;99881.78;4992472;28;96898;-91
2022/05/25 03:08:32;;;;;;;6.93;4.45;;;;;;;18.23;70.65;99884.59;4962648;28;96694;-88
2022/05/25 03:10:57;;;;;;;5.97;4.30;;;;;;;17.90;70.57;99833.94;4959090;28;100864;-91
2022/05/25 03:13:23;;;;;;;9.00;4.18;;;;;;;17.96;70.45;99836.13;4969823;28;101069;-92
2022/05/25 03:15:49;;;;;;;7.15;4.60;;;;;;;18.12;70.62;99873.03;4947128;28;96630;-92
2022/05/25 03:18:14;;;;;;;6.93;4.53;;;;;;;18.27;70.69;99902.00;4979770;28;97481;-92
2022/05/25 03:20:40;;;;;;;8.63;4.68;;;;;;;18.30;70.37;99896.47;5001815;28;97959;-91
2022/05/25 03:23:05;;;;;;;8.77;4.53;;;;;;;18.31;70.39;99910.59;4992431;28;98322;-92
2022/05/25 03:25:31;;;;;;;8.63;4.65;;;;;;;18.32;70.17;99899.00;4966834;28;97184;-91
2022/05/25 03:27:56;;;;;;;6.43;5.22;;;;;;;18.38;70.24;99913.66;4975449;28;96962;-91
2022/05/25 03:30:22;;;;;;;10.23;4.75;;;;;;;18.47;70.18;99910.31;4989936;28;98337;-90
2022/05/25 03:32:48;;;;;;;7.95;4.57;;;;;;;18.27;70.03;99896.69;4970426;28;101186;-92
2022/05/25 03:35:14;;;;;;;6.43;4.47;;;;;;;18.35;70.55;99929.81;5001549;28;97145;-89
2022/05/25 03:37:39;;;;;;;5.47;4.45;;;;;;;18.27;70.47;99923.28;4993420;28;97346;-92
2022/05/25 03:40:09;;;;;;;10.40;5.20;;;;;;;18.33;70.49;99922.81;4976415;28;100261;-92
2022/05/25 03:42:35;;;;;;;6.10;4.50;;;;;;;18.10;71.28;99910.34;4966309;28;101427;-92
2022/05/25 03:45:04;;;;;;;7.35;4.75;;;;;;;17.90;71.79;99903.81;5000950;28;97259;-91
2022/05/25 03:47:32;;;;;;;9.20;4.80;;;;;;;18.02;72.24;99937.44;4974955;28;97271;-91
2022/05/25 03:49:58;;;;;;;7.35;4.97;;;;;;;17.68;72.26;99875.22;4974629;28;100429;-92
2022/05/25 03:52:25;;;;;;;9.35;4.68;;;;;;;18.10;71.88;99931.59;4958320;28;100935;-90
2022/05/25 03:54:51;;;;;;;6.70;5.53;;;;;;;18.22;71.27;99928.06;4959003;28;96625;-91
2022/05/25 03:57:17;;;;;;;7.38;4.82;;;;;;;18.15;71.12;99913.53;4970491;28;96852;-92
2022/05/25 03:59:43;;;;;;;7.05;5.38;;;;;;;18.26;70.90;99937.50;4989986;28;99994;-92
2022/05/25 04:02:08;;;;;;;7.13;4.32;;;;;;;18.19;70.88;99936.25;4983372;28;98272;-91
2022/05/25 04:04:34;;;;;;;5.55;4.82;;;;;;;17.62;71.18;99859.75;4977147;28;96806;-91
2022/05/25 04:07:00;;;;;;;7.13;4.60;;;;;;;17.79;71.19;99888.63;4994560;28;97195;-91
2022/05/25 04:09:25;;;;;;;10.10;4.80;;;;;;;18.20;70.70;99947.72;4994609;28;101386;-90
2022/05/25 04:11:51;;;;;;;10.23;5.65;;;;;;;17.76;71.37;99895.94;4994552;28;97992;-90
2022/05/25 04:14:17;;;;;;;6.40;5.13;;;;;;;17.85;71.32;99945.75;4978135;28;96562;-91
2022/05/25 04:16:44;;;;;;;8.50;4.80;;;;;;;17.76;71.70;99941.06;5009631;28;97207;-91
2022/05/25 04:19:09;;;;;;;7.43;4.57;;;;;;;17.78;70.89;99932.06;5004470;28;98325;-90
2022/05/25 04:21:35;;;;;;;8.40;5.03;;;;;;;17.88;71.40;99954.34;4999173;28;101189;-91
2022/05/25 04:24:01;;;;;;;7.05;4.75;;;;;;;18.06;71.02;99954.88;4989022;28;97015;-92
2022/05/25 04:26:29;;;;;;;8.20;4.78;;;;;;;17.71;71.54;99919.28;4967487;28;97277;-88
2022/05/25 04:28:55;;;;;;;6.70;4.30;;;;;;;18.03;71.59;99962.19;4973971;28;99927;-91
2022/05/25 04:31:20;;;;;;;5.55;4.45;;;;;;;18.06;71.17;99948.69;4974377;28;100362;-91
2022/05/25 04:33:46;;;;;;;5.18;4.10;;;;;;;18.03;70.77;99948.91;4973722;28;96762;-90
2022/05/25 04:36:12;;;;;;;7.78;4.55;;;;;;;18.04;71.09;99962.09;4977961;28;96928;-91
2022/05/25 04:38:37;;;;;;;6.97;4.80;;;;;;;18.04;71.25;99971.88;4977474;28;101441;-91
2022/05/25 04:41:03;;;;;;;8.88;4.75;;;;;;;17.78;71.18;99958.63;4978045;28;100804;-90
2022/05/25 04:43:29;;;;;;;9.38;4.80;;;;;;;17.76;71.46;99959.66;4970784;28;96866;-88
2022/05/25 04:45:55;;;;;;;7.38;4.25;;;;;;;17.90;70.85;99978.16;4972753;28;96890;-91
2022/05/25 04:48:23;;;;;;;7.18;4.30;;;;;;;17.40;70.67;99893.09;4969963;28;101527;-93
2022/05/25 04:50:50;;;;;;;8.45;4.28;;;;;;;17.73;69.58;99966.00;4959199;28;101367;-91
2022/05/25 04:53:17;;;;;;;5.00;3.58;;;;;;;17.62;68.98;99976.50;4951986;28;97857;-91
2022/05/25 04:58:29;;;;;;;6.40;4.05;;;;;;;17.65;69.77;99978.94;4974870;28;101265;-92
2022/05/25 05:00:55;;;;;;;6.35;4.55;;;;;;;17.78;69.46;99981.66;4956236;28;101690;-93
2022/05/25 05:03:23;;;;;;;6.25;5.00;;;;;;;17.66;69.59;99948.81;4974181;28;96730;-91
2022/05/25 05:05:49;;;;;;;10.75;5.45;;;;;;;17.75;69.62;99980.03;4955039;28;97266;-92
2022/05/25 05:08:15;;;;;;;6.75;4.85;;;;;;;17.76;69.34;99975.56;4964871;28;99791;-88
2022/05/25 05:10:41;;;;;;;12.60;5.78;;;;;;;17.60;70.29;99981.09;5000247;28;101509;-90
2022/05/25 05:13:07;;;;;;;5.53;4.20;;;;;;;17.40;71.18;99978.00;4950919;28;96758;-89
2022/05/25 05:15:35;;;;;;;6.75;4.78;;;;;;;17.29;70.51;99955.78;4974909;28;97946;-79
2022/05/25 05:18:01;;;;;;;6.15;4.97;;;;;;;17.27;71.00;99979.75;4968429;28;101543;-74
2022/05/25 05:20:49;;;;;;;7.05;4.00;;;;;;;17.54;70.39;99981.50;4967989;28;99194;-74
2022/05/25 05:23:15;;;;;;;8.45;4.95;;;;;;;17.48;70.99;99987.22;4970723;28;96717;-76
2022/05/25 05:25:41;;;;;;;10.25;4.72;;;;;;;17.26;71.63;99996.63;4980445;28;96773;-70
2022/05/25 05:28:10;;;;;;;8.05;4.10;;;;;;;17.39;70.39;100001.94;4966268;28;100732;-73
2022/05/25 05:30:40;;;;;;;8.70;4.47;;;;;;;17.38;70.76;100003.75;4979659;28;98101;-73
2022/05/25 05:33:05;;;;;;;8.38;5.07;;;;;;;17.28;71.17;99996.50;4980633;28;96957;-73
2022/05/25 05:35:31;;;;;;;7.57;4.25;;;;;;;17.49;71.02;100008.34;4974315;28;97414;-73
2022/05/25 05:37:57;;;;;;;6.18;3.38;;;;;;;17.62;69.13;100008.34;4973614;28;101038;-74
2022/05/25 05:40:24;;;;;;;8.32;3.55;;;;;;;17.58;67.98;99997.13;4985705;28;101014;-75
2022/05/25 05:42:51;;;;;;;4.35;3.42;;;;;;;17.69;68.03;100009.66;4974465;28;97630;-70
2022/05/25 05:45:25;;;;;;;4.57;3.25;;;;;;;17.54;68.04;100006.25;4955477;28;97159;-74
2022/05/25 05:47:58;;;;;;;5.22;3.00;;;;;;;17.41;68.21;100010.66;4954935;28;101888;-73
2022/05/25 05:50:24;;;;;;;5.75;3.30;;;;;;;17.42;68.75;100007.94;4972707;28;100960;-77
2022/05/25 05:52:50;;;;;;;9.30;3.47;;;;;;;17.45;68.91;100001.53;4966318;28;97619;-76
2022/05/25 05:55:16;;;;;;;3.55;2.97;;;;;;;17.27;69.79;99982.41;4998733;28;96945;-74
2022/05/25 05:57:42;;;;;;;6.10;3.03;;;;;;;17.48;68.98;100011.09;4972692;28;97727;-76
2022/05/25 06:00:09;;;;;;;3.38;2.70;;;;;;;17.43;68.24;100004.31;4973575;28;97768;-75
2022/05/25 06:02:41;;;;;;;5.10;3.42;;;;;;;17.61;67.36;100015.47;4984289;28;98398;-77
2022/05/25 06:05:07;;;;;;;8.60;3.30;;;;;;;17.33;68.80;100013.81;4998097;28;96807;-76
2022/05/25 06:07:33;;;;;;;6.47;3.88;;;;;;;17.10;69.47;100007.41;4995736;28;98490;-76
2022/05/25 06:09:58;;;;;;;6.38;3.50;;;;;;;17.07;69.90;100010.25;4972157;28;101232;-76
2022/05/25 06:12:24;;;;;;;4.57;3.30;;;;;;;17.36;68.59;100024.22;5000242;28;96731;-74
2022/05/25 06:14:49;;;;;;;3.88;3.10;;;;;;;17.11;69.07;100006.47;4996577;28;97793;-75
2022/05/25 06:19:59;;;;;;;4.80;2.85;;;;;;;17.25;67.91;100040.03;4974637;28;101366;-74
2022/05/25 06:22:26;;;;;;;8.55;2.85;;;;;;;17.24;67.43;100046.28;5001329;28;96815;-77
2022/05/25 06:24:52;;;;;;;4.57;2.45;;;;;;;17.20;65.15;100047.44;4999922;28;97084;-74
2022/05/25 06:27:19;;;;;;;4.07;2.20;;;;;;;17.03;64.89;100031.78;4975365;28;100977;-75
2022/05/25 06:29:49;;;;;;;4.88;2.10;;;;;;;17.32;64.99;100053.72;4974170;28;101496;-76
2022/05/25 06:32:18;;;;;;;5.55;2.00;;;;;;;17.25;64.05;100049.78;4973162;28;98084;-73
2022/05/25 06:34:47;;;;;;;3.33;2.35;;;;;;;17.24;64.76;100061.34;4971468;28;96848;-78
2022/05/25 06:37:22;;;;;;;4.43;2.22;;;;;;;17.17;63.98;100037.03;4984384;28;103051;-76
2022/05/25 06:39:47;;;;;;;3.60;2.33;;;;;;;17.22;65.27;100072.06;4979019;28;97557;-77
2022/05/25 06:42:13;;;;;;;3.13;2.35;;;;;;;17.20;65.63;100064.19;4991629;28;97295;-74
2022/05/25 06:44:46;;;;;;;3.95;2.67;;;;;;;17.03;67.60;100066.25;4990899;28;96740;-78
2022/05/25 06:47:16;;;;;;;5.78;2.53;;;;;;;16.96;68.54;100060.50;4976566;28;101365;-76
2022/05/25 06:49:42;;;;;;;3.45;2.67;;;;;;;17.13;68.17;100078.81;5010632;28;97896;-76
2022/05/25 06:52:12;;;;;;;4.03;2.78;;;;;;;17.14;68.98;100074.38;5010696;28;96725;-76
2022/05/25 06:54:38;;;;;;;5.75;2.92;;;;;;;17.26;68.30;100073.56;5001850;28;96792;-74
2022/05/25 06:57:04;;;;;;;6.05;3.00;;;;;;;17.19;68.52;100059.84;4987125;28;101150;-74
2022/05/25 06:59:29;;;;;;;6.50;3.00;;;;;;;17.07;69.88;100078.34;4971040;28;98552;-75
2022/05/25 07:01:55;;;;;;;4.65;2.80;;;;;;;17.12;69.65;100094.81;4988495;28;97268;-75
2022/05/25 07:04:21;;;;;;;8.75;3.42;;;;;;;17.02;69.18;100067.22;4974249;28;96851;-75
2022/05/25 07:06:46;;;;;;;4.72;3.35;;;;;;;17.10;67.89;100072.84;4957253;28;101538;-75
2022/05/25 07:09:12;;;;;;;5.82;3.67;;;;;;;16.85;68.76;100063.84;4974900;28;98089;-75
2022/05/25 07:11:39;;;;;;;6.30;3.30;;;;;;;16.89;69.82;100093.66;4990042;28;96839;-75
2022/05/25 07:14:05;;;;;;;6.93;3.50;;;;;;;16.96;69.29;100100.28;4992707;28;96755;-76
2022/05/25 07:16:31;;;;;;;5.95;3.45;;;;;;;16.85;69.03;100078.91;4973521;28;97379;-75
2022/05/25 07:18:57;;;;;;;6.57;3.25;;;;;;;16.92;69.77;100112.84;4990809;28;97979;-75
2022/05/25 07:21:26;;;;;;;6.30;3.97;;;;;;;16.87;68.73;100103.50;4989903;28;97079;-75
2022/05/25 07:23:52;;;;;;;3.85;3.03;;;;;;;16.82;68.20;100114.41;4990346;28;97959;-76
2022/05/25 07:26:18;;;;;;;6.57;3.83;;;;;;;16.86;68.49;100093.84;4973755;28;97926;-75
2022/05/25 07:28:45;;;;;;;4.05;3.65;;;;;;;17.06;68.41;100116.44;4955798;28;101199;-76
2022/05/25 07:31:21;;;;;;;7.10;3.25;;;;;;;16.92;67.98;100090.78;4954081;28;96935;-75
2022/05/25 07:33:50;;;;;;;3.72;2.80;;;;;;;17.20;67.46;100111.09;4970838;28;96993;-78
2022/05/25 07:36:16;;;;;;;4.53;2.70;;;;;;;17.23;66.41;100123.31;4953936;28;101400;-75
2022/05/25 07:38:45;;;;;;;5.60;3.60;;;;;;;17.25;67.40;100124.91;4986775;28;101085;-76
2022/05/25 07:41:10;;;;;;;6.40;3.65;;;;;;;16.95;68.19;100110.00;4986372;28;96985;-75
2022/05/25 07:43:38;;;;;;;5.65;3.10;;;;;;;16.94;68.59;100126.88;4953706;28;96630;-76
2022/05/25 07:46:03;;;;;;;6.85;3.55;;;;;;;16.99;68.25;100126.59;4952707;28;101584;-75
2022/05/25 07:48:29;;;;;;;5.72;3.17;;;;;;;16.98;68.06;100138.97;4936778;28;100128;-77
2022/05/25 07:50:55;;;;;;;5.20;3.08;;;;;;;16.95;68.66;100125.91;4944531;28;97060;-75
2022/05/25 07:56:05;;;;;;;6.82;2.83;;;;;;;17.03;67.79;100133.38;4968108;28;101519;-75
2022/05/25 07:58:32;;;;;;;6.35;2.95;;;;;;;17.15;67.71;100132.59;4957167;28;101491;-76
2022/05/25 08:01:02;;;;;;;5.32;3.38;;;;;;;17.06;67.58;100133.19;4970660;28;96733;-76
2022/05/25 08:06:12;;;;;;;3.05;2.63;;;;;;;17.29;67.19;100144.13;4985205;28;99087;-76
2022/05/25 08:08:38;;;;;;;4.38;2.30;;;;;;;17.13;67.44;100137.16;4953962;28;100707;-76
2022/05/25 08:11:07;;;;;;;3.88;2.47;;;;;;;16.95;66.39;100104.69;4970006;28;96754;-76
2022/05/25 08:13:34;;;;;;;4.30;2.90;;;;;;;17.24;66.86;100146.22;4987106;28;97642;-77
2022/05/25 08:16:00;;;;;;;5.00;2.95;;;;;;;17.17;67.26;100133.34;4986589;28;98031;-76
2022/05/25 08:18:26;;;;;;;4.00;2.50;;;;;;;17.37;66.04;100137.38;4969927;28;101414;-80
2022/05/25 08:20:51;;;;;;;6.07;2.55;;;;;;;17.35;65.79;100111.91;4954706;28;96914;-84
2022/05/25 08:23:17;;;;;;;7.07;2.75;;;;;;;17.49;65.70;100141.03;4971106;28;96999;-77
2022/05/25 08:25:43;;;;;;;5.13;2.25;;;;;;;17.05;66.57;100091.72;4969692;28;97897;-76
2022/05/25 08:28:09;;;;;;;3.25;2.50;;;;;;;17.31;65.96;100137.78;4970937;28;97215;-73
2022/05/25 08:30:37;;;;;;;3.60;2.20;;;;;;;17.24;65.65;100140.91;4970352;28;96795;-73
2022/05/25 08:33:03;;;;;;;3.85;2.22;;;;;;;17.08;65.24;100133.09;4986859;28;96842;-73
2022/05/25 08:35:30;;;;;;;3.28;2.08;;;;;;;16.99;65.96;100121.28;4969780;28;101262;-72
2022/05/25 08:37:57;;;;;;;2.72;2.40;;;;;;;16.98;66.19;100123.06;4987943;28;97273;-76
2022/05/25 08:40:23;;;;;;;4.50;2.30;;;;;;;16.92;65.95;100106.72;4971826;28;96722;-76
2022/05/25 08:43:04;;;;;;;5.28;2.40;;;;;;;16.81;66.34;100090.63;4955838;28;96950;-76
2022/05/25 08:45:46;;;;;;;3.63;2.38;;;;;;;16.79;66.88;100109.28;4988315;28;97427;-75
2022/05/25 08:48:14;;;;;;;2.42;2.20;;;;;;;16.88;67.63;100106.06;4988807;28;97914;-77
2022/05/25 19:52:52;;;;;;;6.43;3.40;;;;;;;15.49;71.54;100286.38;5021290;28;97358;-75
2022/05/25 19:55:17;;;;;;;8.13;3.50;;;;;;;15.53;71.79;100277.31;5012174;28;97396;-75
2022/05/25 19:57:43;;;;;;;8.10;3.13;;;;;;;15.60;71.80;100284.84;4964343;28;103504;-75
2022/05/25 20:00:16;;;;;;;5.45;3.70;;;;;;;15.51;71.13;100258.06;4989888;28;101359;-75
2022/05/25 20:02:41;;;;;;;5.35;3.03;;;;;;;15.73;70.90;100286.84;4976214;28;97740;-74
2022/05/25 20:05:08;;;;;;;9.60;3.25;;;;;;;15.71;71.06;100272.88;5014187;27;97060;-78
2022/05/25 20:07:34;;;;;;;4.78;3.17;;;;;;;15.82;70.82;100283.66;5001151;28;101062;-76
2022/05/25 20:10:00;;;;;;;5.35;2.70;;;;;;;15.72;70.79;100264.81;5019529;27;97461;-76
2022/05/25 20:12:26;;;;;;;3.63;2.75;;;;;;;15.74;70.86;100289.41;4992297;28;96840;-76
2022/05/25 20:14:52;;;;;;;6.07;3.58;;;;;;;15.81;70.12;100296.06;5010398;28;97323;-76
2022/05/25 20:17:17;;;;;;;5.10;2.85;;;;;;;15.76;70.17;100290.16;5007386;28;99306;-76
2022/05/25 20:19:44;;;;;;;9.43;3.10;;;;;;;15.84;69.92;100289.75;4989369;28;97907;-76
2022/05/25 20:22:12;;;;;;;4.18;3.13;;;;;;;15.80;69.62;100301.44;5028733;27;97532;-76
2022/05/25 20:24:38;;;;;;;5.30;3.15;;;;;;;15.87;69.45;100286.91;5010100;28;97074;-76
2022/05/25 20:27:04;;;;;;;7.82;3.13;;;;;;;15.72;69.76;100293.94;5025178;28;101449;-77
2022/05/25 20:29:31;;;;;;;4.07;2.75;;;;;;;15.69;69.78;100275.56;5017761;28;97397;-77
2022/05/25 20:31:58;;;;;;;6.63;3.33;;;;;;;15.72;70.06;100295.72;5005472;28;97350;-77
2022/05/25 20:34:24;;;;;;;3.75;2.95;;;;;;;15.78;69.38;100296.22;5021460;27;97688;-80
2022/05/25 20:36:51;;;;;;;4.35;2.92;;;;;;;15.60;69.88;100284.84;5026674;28;97508;-80
2022/05/25 20:39:18;;;;;;;5.30;3.13;;;;;;;15.55;69.73;100283.41;4997914;28;99158;-79
2022/05/25 20:41:44;;;;;;;4.55;3.20;;;;;;;15.73;69.52;100305.38;5041235;27;97436;-80
2022/05/25 20:44:10;;;;;;;6.70;3.28;;;;;;;15.68;69.45;100299.47;5009074;28;97965;-80
2022/05/25 20:46:35;;;;;;;7.20;3.13;;;;;;;15.54;69.77;100287.84;4992683;28;101522;-79
2022/05/25 20:49:01;;;;;;;5.35;2.63;;;;;;;15.59;69.45;100292.84;5009662;28;100966;-80
2022/05/25 20:51:26;;;;;;;6.20;3.03;;;;;;;15.57;69.74;100298.25;5006455;28;96904;-80
2022/05/25 20:53:54;;;;;;;7.80;3.42;;;;;;;15.55;69.94;100294.81;5008750;28;97047;-80
2022/05/25 20:56:20;;;;;;;8.55;3.40;;;;;;;15.51;69.20;100273.94;5006096;28;101647;-79
2022/05/25 20:58:46;;;;;;;8.18;3.30;;;;;;;15.56;69.26;100290.38;5018927;27;101640;-79
2022/05/25 21:01:12;;;;;;;5.97;2.95;;;;;;;15.52;69.46;100289.72;5006136;28;96940;-80
2022/05/25 21:03:38;;;;;;;7.47;3.45;;;;;;;15.50;69.41;100296.88;5010211;28;96935;-80
2022/05/25 21:06:06;;;;;;;5.32;3.63;;;;;;;15.52;69.22;100289.72;5011664;28;98129;-80
2022/05/25 21:08:32;;;;;;;6.97;2.92;;;;;;;15.62;68.74;100295.38;5005998;28;97348;-79
2022/05/25 21:11:02;;;;;;;12.88;3.28;;;;;;;15.40;68.75;100271.88;4995032;28;96677;-80
2022/05/25 21:13:28;;;;;;;4.60;3.03;;;;;;;15.50;68.70;100291.56;4994560;28;97992;-80
2022/05/25 21:15:55;;;;;;;7.72;3.47;;;;;;;15.48;68.64;100279.41;4978047;28;101567;-80
2022/05/25 21:18:21;;;;;;;9.13;3.35;;;;;;;15.60;68.54;100287.50;5011481;28;100716;-80
2022/05/25 21:20:47;;;;;;;5.03;3.03;;;;;;;15.49;68.45;100279.28;4994139;28;98250;-80
2022/05/25 21:23:12;;;;;;;8.45;3.17;;;;;;;15.44;68.69;100278.69;5012868;28;96963;-80
2022/05/25 21:25:41;;;;;;;6.53;3.30;;;;;;;15.49;68.59;100289.03;5006233;28;97360;-80
2022/05/25 21:28:10;;;;;;;8.52;3.55;;;;;;;15.48;68.54;100290.81;5012407;28;100937;-80
2022/05/25 21:33:35;;;;;;;5.47;3.30;;;;;;;15.74;67.66;100294.72;4996663;28;96994;-80
2022/05/25 21:36:02;;;;;;;3.90;3.13;;;;;;;15.61;67.80;100293.63;4975564;28;101284;-80
2022/05/25 21:38:28;;;;;;;5.53;3.28;;;;;;;15.44;67.92;100280.47;5011756;28;97422;-79
2022/05/25 21:40:55;;;;;;;5.13;3.30;;;;;;;15.32;68.17;100290.78;5006183;28;97343;-80
2022/05/25 21:43:22;;;;;;;7.90;3.40;;;;;;;15.47;68.01;100291.75;4994416;28;96858;-80
2022/05/25 21:51:17;;;;;;;8.32;3.50;;;;;;;15.31;68.46;100288.25;5008629;28;96930;-80
2022/05/25 21:53:43;;;;;;;5.40;3.15;;;;;;;15.32;68.50;100282.84;4976246;28;96769;-80
2022/05/25 21:56:09;;;;;;;8.27;3.33;;;;;;;15.45;68.01;100283.06;4990957;28;101132;-80
2022/05/25 21:58:34;;;;;;;6.10;3.50;;;;;;;15.37;68.27;100287.91;5010574;28;102165;-80
2022/05/25 22:01:00;;;;;;;5.15;3.20;;;;;;;15.36;68.75;100284.41;4994173;28;97271;-80
2022/05/25 22:03:26;;;;;;;6.22;3.38;;;;;;;15.30;68.42;100258.31;4976219;28;96851;-80
2022/05/25 22:05:52;;;;;;;5.25;3.33;;;;;;;15.29;68.53;100268.94;4990677;28;98078;-80
2022/05/25 22:08:18;;;;;;;9.93;3.28;;;;;;;15.27;68.81;100274.34;5001970;28;98024;-80
2022/05/25 22:10:44;;;;;;;5.53;3.40;;;;;;;15.30;68.76;100274.16;4984552;28;97388;-80
2022/05/25 22:13:10;;;;;;;10.10;3.40;;;;;;;15.32;68.61;100277.56;4994324;28;96910;-80
2022/05/25 22:15:36;;;;;;;9.35;3.90;;;;;;;15.25;68.82;100270.91;4976959;28;101420;-79
2022/05/25 22:18:01;;;;;;;8.73;4.07;;;;;;;15.23;68.58;100259.56;4966159;28;100968;-80
2022/05/25 22:20:27;;;;;;;11.13;4.07;;;;;;;15.34;68.40;100286.28;4995791;28;97338;-80
2022/05/25 22:22:54;;;;;;;6.18;4.15;;;;;;;15.25;68.95;100262.97;4992201;28;97362;-80
2022/05/25 22:25:20;;;;;;;8.45;3.78;;;;;;;15.08;68.40;100242.75;4993413;28;101076;-80
2022/05/25 22:27:46;;;;;;;10.50;3.70;;;;;;;15.46;68.15;100282.09;5012931;28;97308;-80
2022/05/25 22:30:13;;;;;;;7.93;3.70;;;;;;;15.26;68.45;100258.53;4978275;28;97051;-79
2022/05/25 22:32:38;;;;;;;6.90;3.50;;;;;;;15.13;68.41;100243.34;4961019;28;96878;-79
2022/05/25 22:35:04;;;;;;;5.43;3.42;;;;;;;15.36;68.76;100287.06;4977773;28;101002;-80
2022/05/25 22:37:30;;;;;;;6.20;3.20;;;;;;;15.33;68.95;100289.00;5027141;28;98402;-80
2022/05/25 22:39:55;;;;;;;4.00;3.17;;;;;;;15.37;68.63;100294.03;5006747;28;96946;-80
2022/05/25 22:42:21;;;;;;;5.07;3.25;;;;;;;15.28;68.41;100259.31;4994416;28;96774;-80
2022/05/25 22:44:47;;;;;;;5.40;2.92;;;;;;;15.51;67.97;100295.09;5001279;28;97426;-78
2022/05/25 22:47:12;;;;;;;5.70;3.30;;;;;;;15.39;68.51;100286.88;4977297;28;100916;-79
2022/05/25 22:49:38;;;;;;;8.77;3.80;;;;;;;15.45;68.24;100296.28;4991841;28;96731;-79
2022/05/25 22:52:04;;;;;;;4.32;3.33;;;;;;;15.41;68.25;100284.16;4977444;28;96904;-79
2022/05/25 22:54:29;;;;;;;8.15;3.00;;;;;;;15.40;68.45;100282.44;4984087;28;101979;-79